Goshen, AR (72735)

8:38 PM CDT on August 20, 2014 (GMT -0500)
Shady Cove | Change Station
CLOSE
Current Station
Personal Weather Station
Location: Springdale, AR
Elevation: 1207 ft
Nearby Weather Stations

Elev 1207 ft 36.20 °N, 94.02 °W | Updated 6 minutes ago

Clear
Clear
78.6 °F
Feels Like 81 °F
N
0.0
Wind Variable Wind from South

Today
High -- | Low -- °F
--% Chance of Precip.
Yesterday
High -- | Low -- °F
Precip. -- in
6:38 AM 7:59 PM
Waning Crescent, 18% visible
Pressure 29.98 in
Visibility 10.0 miles
Clouds Clear
Heat Index 81 °F
Dew Point 66 °F
Humidity 65%
Rainfall 0.00 in
Snow Depth Not available.
UV 0 out of 12
Pollen 9.20 out of 12
Air Quality Not available.
Flu Activity Not available.
METAR KASG 210048Z 17008KT 10SM SKC 29/18 A2998

More Conditions Fewer Conditions

Pressure 29.98 in
Visibility 10.0 miles
Clouds Clear
Heat Index 81 °F
Dew Point 66 °F
Humidity 65%
Rainfall 0.00 in
Snow Depth Not available.
UV 0 out of 12
Pollen 9.20 out of 12
Air Quality Not available.
Flu Activity Not available.
METAR KASG 210048Z 17008KT 10SM SKC 29/18 A2998

More Conditions Fewer Conditions

10-Day Weather Forecast

Almanac

Astronomy

Aug. 20, 2014 Rise Set
Actual Time 6:38 AM CDT 7:59 PM CDT
Civil Twilight 6:11 AM CDT 8:26 PM CDT
Nautical Twilight 5:39 AM CDT 8:58 PM CDT
Astronomical Twilight 5:05 AM CDT 9:32 PM CDT
Moon 2:22 AM CDT (8/20) 4:42 PM CDT (8/20)
Length of Visible Light 14h 15m
Length of Day
13h 21m
Tomorrow will be 2m 4s shorter.
Waning Crescent, 18% of the Moon is Illuminated
Today
Waning Crescent
Aug 25
New
Sep 2
First Quarter
Sep 8
Full
Sep 15
Last Quarter

Today's Extremes

State Highs State Lows

Community

WunderPhotos

Upload Photos

1,745,859 photos uploaded!

WunderBlogs® & News

Nearby

Snow Depth

Station Depth Elevation
No new snow has been reported.

Earthquake Activity

City Distance Mag. Time & Date
No recent earthquake activity has been reported nearby.
Minimum magnitude displayed is 2.5.

Coastal Water Temperatures

Place Temperature
No Stations Reporting

Nearby Weather Stations